Flight Track Log - Related Links

Times and Time Zones

All times are in EDT time to prevent confusion due to time zone crossing. See the N934DL flight status page for this flight to view local times or setup timezone preferences in your user account.

Time Position Orientation Groundspeed Altitude Reporting Facility
EDT Latitude Longitude Course Direction KTS MPH feet Rate Location/Type
Sat 02:00:28 PM 27.4167 -82.5667 North 181 208 1,300  Level Tampa TRACON
Sat 02:01:10 PM 27.4167 -82.6167 270° West 206 237 1,900 2,118 Climbing Tampa TRACON
Sat 02:02:10 PM 27.4000 -82.7000 257° West 260 299 4,900 2,862 Climbing Tampa TRACON
Sat 02:03:00 PM 27.5968 -82.7833 North  Level FlightAware Approximate
Sat 02:04:00 PM 27.7204 -82.7833 North  Level FlightAware Approximate
Sat 02:04:04 PM 27.5000 -82.7956 320° Northwest 240 276 10,200  Level Miami Center
Sat 02:05:00 PM 27.8440 -82.7833 North  Level FlightAware Approximate
Sat 02:05:04 PM 27.5961 -82.7914 North 280 322 11,100  Level Miami Center
Sat 02:06:04 PM 27.7067 -82.7875 North 341 392 13,200 2,217 Climbing Miami Center
Sat 02:08:08 PM 27.9433 -82.7869 360° North 464 534 17,900 2,120 Climbing Jacksonville Center
Sat 02:09:08 PM 28.0644 -82.7867 360° North 440 506 19,700 1,050 Climbing Jacksonville Center
Sat 02:10:08 PM 28.1917 -82.7867 360° North 440 506 20,000 250 Climbing Jacksonville Center
Sat 02:11:08 PM 28.3189 -82.7842 North 445 512 20,200 950 Climbing Jacksonville Center
Sat 02:12:08 PM 28.4461 -82.7817 North 445 512 21,900 1,650 Climbing Jacksonville Center
Sat 02:13:08 PM 28.5881 -82.7697 North 453 521 23,500 1,550 Climbing Jacksonville Center
Sat 02:14:08 PM 28.7069 -82.7575 North 468 539 25,000 750 Climbing Jacksonville Center
Sat 02:15:08 PM 28.8386 -82.7433 North 474 545 25,000  Level Jacksonville Center
Sat 02:16:08 PM 28.9700 -82.7311 North 474 545 25,000  Level Jacksonville Center
Sat 02:17:08 PM 29.1036 -82.7214 North 474 545 25,000  Level Jacksonville Center
Sat 02:18:08 PM 29.2350 -82.7331 356° North 474 545 25,000  Level Jacksonville Center
Sat 02:19:08 PM 29.3644 -82.7447 356° North 474 545 25,000  Level Jacksonville Center
Sat 02:20:08 PM 29.4981 -82.7614 354° North 474 545 25,000  Level Jacksonville Center
Sat 02:21:08 PM 29.6275 -82.7708 356° North 474 545 25,000  Level Jacksonville Center
Sat 02:22:08 PM 29.7611 -82.7778 357° North 474 545 25,000  Level Jacksonville Center
Sat 02:23:08 PM 29.8947 -82.7825 358° North 474 545 25,000  Level Jacksonville Center
Sat 02:24:08 PM 30.0283 -82.7703 North 479 551 25,000  Level Jacksonville Center
Sat 02:25:08 PM 30.1642 -82.7411 11° North 479 551 25,000  Level Jacksonville Center
Sat 02:26:08 PM 30.2997 -82.7194 North 485 558 25,000  Level Jacksonville Center
Sat 02:27:08 PM 30.4375 -82.6950 North 485 558 25,000 100 Level Jacksonville Center
Sat 02:28:08 PM 30.5711 -82.6561 14° North 485 558 25,200 1,050 Climbing Jacksonville Center
Sat 02:29:08 PM 30.7006 -82.5953 22° Northeast 485 558 27,100 1,550 Climbing Jacksonville Center
Sat 02:30:08 PM 30.8256 -82.5322 23° Northeast 490 564 28,300 1,150 Climbing Jacksonville Center
Sat 02:31:08 PM 30.9569 -82.4661 23° Northeast 495 570 29,400 1,000 Climbing Jacksonville Center
Sat 02:32:08 PM 31.0903 -82.4025 22° Northeast 506 582 30,300 1,000 Climbing Jacksonville Center
Sat 02:33:08 PM 31.2258 -82.3386 22° Northeast 513 590 31,400 1,100 Climbing Jacksonville Center
Sat 02:34:08 PM 31.3736 -82.2672 22° Northeast 513 590 32,500 1,000 Climbing Jacksonville Center
Sat 02:35:08 PM 31.5111 -82.2006 22° Northeast 524 603 33,400 850 Climbing Jacksonville Center
Sat 02:36:08 PM 31.6444 -82.1336 23° Northeast 519 597 34,200 700 Climbing Jacksonville Center
Sat 02:37:08 PM 31.7650 -82.0717 24° Northeast 519 597 34,800 400 Climbing Jacksonville Center
Sat 02:38:08 PM 31.9150 -81.9967 23° Northeast 519 597 35,000 100 Climbing Jacksonville Center
Sat 02:39:08 PM 32.0417 -81.9072 31° Northeast 519 597 35,000  Level Jacksonville Center
Sat 02:40:08 PM 32.1558 -81.8178 34° Northeast 537 618 35,000  Level Jacksonville Center
Sat 02:41:08 PM 32.2947 -81.7106 33° Northeast 543 625 35,000  Level Jacksonville Center
Sat 02:42:08 PM 32.4086 -81.6228 33° Northeast 543 625 35,000  Level Jacksonville Center
Sat 02:43:08 PM 32.5494 -81.5150 33° Northeast 543 625 35,000  Level Jacksonville Center
Sat 02:44:08 PM 32.6778 -81.4142 33° Northeast 543 625 35,000  Level Jacksonville Center
Sat 02:45:08 PM 32.7914 -81.3233 34° Northeast 543 625 35,000  Level Jacksonville Center
Sat 02:46:08 PM 32.9194 -81.2222 34° Northeast 543 625 35,000  Level Jacksonville Center
Sat 02:47:08 PM 33.0436 -81.1258 33° Northeast 543 625 35,000  Level Jacksonville Center
Sat 02:48:08 PM 33.1714 -81.0264 33° Northeast 543 625 35,000  Level Jacksonville Center
Sat 02:49:08 PM 33.2992 -80.9219 34° Northeast 543 625 35,000  Level Jacksonville Center
Sat 02:50:08 PM 33.4250 -80.8219 34° Northeast 543 625 35,000  Level Jacksonville Center
Sat 02:51:08 PM 33.5547 -80.7167 34° Northeast 543 625 35,000  Level Jacksonville Center
Sat 02:52:08 PM 33.6803 -80.6164 34° Northeast 543 625 35,000  Level Jacksonville Center
Sat 02:53:08 PM 33.8078 -80.5131 34° Northeast 543 625 35,000  Level Jacksonville Center
Sat 02:54:08 PM 33.9372 -80.4094 34° Northeast 543 625 35,000  Level Jacksonville Center
Sat 02:55:08 PM 34.0725 -80.2978 34° Northeast 548 631 35,000  Level Jacksonville Center
Sat 02:56:08 PM 34.2019 -80.1911 34° Northeast 543 625 35,000  Level Jacksonville Center
Sat 02:58:15 PM 34.4714 -79.9675 34° Northeast 552 635 35,000  Level Washington Center
Sat 02:59:15 PM 34.5983 -79.8608 35° Northeast 552 635 35,000  Level Washington Center
Sat 03:00:15 PM 34.7253 -79.7539 35° Northeast 552 635 35,000  Level Washington Center
Sat 03:01:15 PM 34.8542 -79.6492 34° Northeast 552 635 35,000  Level Washington Center
Sat 03:02:15 PM 34.9828 -79.5414 34° Northeast 552 635 35,000  Level Washington Center
Sat 03:03:15 PM 35.1094 -79.4361 34° Northeast 552 635 35,000  Level Washington Center
Sat 03:04:15 PM 35.2403 -79.3278 34° Northeast 552 635 35,000  Level Washington Center
Sat 03:05:15 PM 35.3675 -79.2572 24° Northeast 552 635 35,000  Level Washington Center
Sat 03:06:15 PM 35.5147 -79.2233 11° North 541 623 35,000  Level Washington Center
Sat 03:07:15 PM 35.6600 -79.1811 13° North 536 617 35,000  Level Washington Center
Sat 03:08:15 PM 35.7922 -79.0772 33° Northeast 542 624 35,000  Level Washington Center
Sat 03:09:15 PM 35.9108 -78.9489 41° Northeast 547 629 35,000  Level Washington Center
Sat 03:10:15 PM 36.0269 -78.8203 42° Northeast 553 636 35,000  Level Washington Center
Sat 03:11:15 PM 36.1472 -78.6889 41° Northeast 558 642 35,000  Level Washington Center
Sat 03:12:15 PM 36.2694 -78.5625 40° Northeast 563 648 35,000  Level Washington Center
Sat 03:13:15 PM 36.3872 -78.4353 41° Northeast 568 654 35,000  Level Washington Center
Sat 03:14:15 PM 36.5050 -78.3053 42° Northeast 568 654 35,000  Level Washington Center
Sat 03:15:15 PM 36.6247 -78.1747 41° Northeast 568 654 35,000  Level Washington Center
Sat 03:16:15 PM 36.7508 -78.0314 42° Northeast 568 654 35,000  Level Washington Center
Sat 03:17:15 PM 36.8706 -77.8947 42° Northeast 563 648 35,000  Level Washington Center
Sat 03:18:15 PM 36.9650 -77.7417 52° Northeast 563 648 35,000  Level Washington Center
Sat 03:19:15 PM 37.0553 -77.5853 54° Northeast 563 648 35,000  Level Washington Center
Sat 03:20:15 PM 37.1392 -77.4417 54° Northeast 563 648 35,000  Level Washington Center
Sat 03:21:15 PM 37.2311 -77.2847 54° Northeast 558 642 35,000  Level Washington Center
Sat 03:22:15 PM 37.3269 -77.1303 52° Northeast 565 650 35,000  Level Washington Center
Sat 03:23:15 PM 37.4744 -77.0050 34° Northeast 566 651 35,000  Level Washington Center
Sat 03:24:15 PM 37.6156 -76.9053 29° Northeast 571 657 35,000  Level Washington Center
Sat 03:25:15 PM 37.7522 -76.8025 31° Northeast 571 657 35,000  Level Washington Center
Sat 03:26:15 PM 37.8867 -76.6994 31° Northeast 566 651 35,000  Level Washington Center
Sat 03:27:15 PM 38.0272 -76.5961 30° Northeast 566 651 35,000  Level Washington Center
Sat 03:28:15 PM 38.1656 -76.4922 31° Northeast 566 651 35,000  Level Washington Center
Sat 03:29:15 PM 38.3042 -76.3828 32° Northeast 571 657 35,000  Level Washington Center
Sat 03:30:15 PM 38.4319 -76.2703 35° Northeast 566 651 35,000  Level Washington Center
Sat 03:31:15 PM 38.5639 -76.1414 37° Northeast 566 651 35,000 -1,050 Level Washington Center
Sat 03:32:15 PM 38.6853 -76.0358 34° Northeast 588 677 32,900 -2,800 Descending Washington Center
Sat 03:33:15 PM 38.8192 -75.9086 36° Northeast 593 682 29,400 -2,900 Descending Washington Center
Sat 03:34:15 PM 38.9528 -75.7839 36° Northeast 593 682 27,100 -1,200 Descending Washington Center
Sat 03:35:15 PM 39.0781 -75.6639 37° Northeast 582 670 27,000 -450 Descending Washington Center
Sat 03:36:15 PM 39.2050 -75.5406 37° Northeast 577 664 26,200 -1,250 Descending Washington Center
Sat 03:37:15 PM 39.3300 -75.4253 35° Northeast 572 658 24,500 -1,950 Descending Washington Center
Sat 03:38:15 PM 39.4528 -75.3200 33° Northeast 548 631 22,300 -2,000 Descending Washington Center
Sat 03:39:15 PM 39.5650 -75.2175 35° Northeast 519 597 20,500 -2,100 Descending Washington Center
Sat 03:40:15 PM 39.6814 -75.1089 36° Northeast 480 552 18,100 -2,250 Descending Washington Center
Sat 03:41:15 PM 39.7725 -75.0300 34° Northeast 446 513 16,000 -2,300 Descending Washington Center
Sat 03:42:15 PM 39.8806 -74.9372 33° Northeast 428 493 13,500 -2,000 Descending Washington Center
Sat 03:43:15 PM 39.9694 -74.8308 43° Northeast 423 487 12,000 -1,210 Descending Washington Center
Sat 03:44:19 PM 40.0500 -74.7167 47° Northeast 404 465 11,000 -877 Descending New York TRACON
Sat 03:45:25 PM 40.1333 -74.6000 47° Northeast 390 449 10,100 -450 Descending New York TRACON
Sat 03:46:19 PM 40.2000 -74.5000 49° Northeast 383 441 10,100  Level New York TRACON
Sat 03:47:19 PM 40.2667 -74.4167 44° Northeast 384 442 10,100 -200 Level New York TRACON
Sat 03:48:19 PM 40.3500 -74.3333 37° Northeast 331 381 9,700 -850 Descending New York TRACON
Sat 03:49:19 PM 40.4167 -74.2667 37° Northeast 307 353 8,400 -1,200 Descending New York TRACON
Sat 03:50:19 PM 40.4833 -74.2000 37° Northeast 288 331 7,300 -1,300 Descending New York TRACON
Sat 03:51:19 PM 40.5333 -74.1333 45° Northeast 279 321 5,800 -1,400 Descending New York TRACON
Sat 03:52:19 PM 40.6000 -74.0667 37° Northeast 277 319 4,500 -850 Descending New York TRACON
Sat 03:53:19 PM 40.6500 -74.0000 45° Northeast 275 316 4,100 -200 Descending New York TRACON
Sat 03:54:19 PM 40.7000 -73.9167 52° Northeast 277 319 4,100  Level New York TRACON
Sat 03:55:25 PM 40.7500 -73.8333 52° Northeast 275 316 4,100  Level New York TRACON
Sat 03:56:25 PM 40.8000 -73.7667 45° Northeast 269 310 4,100  Level New York TRACON
Sat 03:57:19 PM 40.8667 -73.7167 30° Northeast 266 306 4,100 -263 Level New York TRACON
Sat 03:58:19 PM 40.9167 -73.7000 14° North 255 293 3,600 -800 Descending New York TRACON
Sat 03:59:19 PM 40.9333 -73.7667 288° West 233 268 2,500 -1,100 Descending New York TRACON

Login

Don't have an account? Register now (free) for customized features, flight alerts, and more!